メインページ
METAR-TAF:

METAR-TAF

空港 :

リスト・フェレンツ国際空港

ブダペスト, ハンガリー

緯度: 47-26N, 経度: 019-16E, 海抜: 151m

現時点の気象観測

当レポートは6分前の08:30(UTC)に作成
北東の風 8kt、からの間で変化する
気温 20°C
湿度 53%
気圧 1019 hPa
視程10km以上
高度4700ftの雲はほとんどない

METAR: LHBP 210830Z 04008KT 010V080 9999 FEW047 20/10 Q1019 NOSIG

時間: 10:36 (08:36 UTC)

予報

当レポートは3時間21分前の05:15(UTC)に作成
予報は21日の 06時(UTC)から 22日の 06時(UTC)まで有効
の風 5kt
視程10km以上
1,500メートル以下は雲なし、積乱雲なし
21日の 07時(UTC)から 21日の 09時(UTC)まで徐々に
東/北東の風 12kt
確率 40% :
21日の 12時(UTC)から 21日の 24時(UTC)まで一時的に
変向風 15kt、最大30ktの突風を伴う
視程: 4500m
高度5000ftの雲は散在している, 積乱雲.
高度7000ftの雲は散在している
激しい雷雨, 雨, にわか雨
21日の 15時(UTC)から 21日の 18時(UTC)まで徐々に
東/北東の風 5kt
22日の 00時(UTC)から 22日の 06時(UTC)まで一時的に
変向風 15kt、最大25ktの突風を伴う
視程: 4500m
高度4500ftの雲は散在している, 積乱雲.
高度6000ftの千切れ雲あり
激しい雷雨, 雨, にわか雨

TAF: LHBP 210515Z 2106/2206 35005KT CAVOK BECMG 2107/2109 07012KT PROB40 TEMPO 2112/2124 VRB15G30KT 4500 TSRA SHRA SCT050CB SCT070 BECMG 2115/2118 07005KT TEMPO 2200/2206 VRB15G25KT 4500 TSRA SHRA SCT045CB BKN060

4,000以上の空港の気象観測と天気予報(METAR報とTAF報)

利用可能な観測所は地図上に黄色い丸と赤い丸で示す。

丸の上にカーソルを重ねると観測所名を参照できる。

次にクリックすると気象観測と天気予報を参照できる。

マップの切り替え:黒色「×」印の緑ボタンをクリックして拡大、「-」印の緑ボタンをクリックして縮小、緑色の三角印をクリックして隣りの地図に切り替え


METAR-TAF: